sensor_id;sensor_type;location;lat;lon;timestamp;P1;durP1;ratioP1;P2;durP2;ratioP2
13753;SDS011;6948;51.216;6.778;2023-02-22T00:01:53;77.10;;;41.67;;
13753;SDS011;6948;51.216;6.778;2023-02-22T00:04:35;73.30;;;40.67;;
13753;SDS011;6948;51.216;6.778;2023-02-22T00:07:03;72.87;;;40.63;;
13753;SDS011;6948;51.216;6.778;2023-02-22T00:09:29;76.03;;;40.63;;
13753;SDS011;6948;51.216;6.778;2023-02-22T00:11:55;69.70;;;39.00;;
13753;SDS011;6948;51.216;6.778;2023-02-22T00:14:22;69.43;;;38.50;;
13753;SDS011;6948;51.216;6.778;2023-02-22T00:16:51;61.43;;;35.87;;
13753;SDS011;6948;51.216;6.778;2023-02-22T00:19:20;65.37;;;35.83;;
13753;SDS011;6948;51.216;6.778;2023-02-22T00:21:50;81.03;;;34.20;;
13753;SDS011;6948;51.216;6.778;2023-02-22T00:24:17;64.60;;;34.50;;
13753;SDS011;6948;51.216;6.778;2023-02-22T00:26:49;106.33;;;34.83;;
13753;SDS011;6948;51.216;6.778;2023-02-22T00:29:15;83.37;;;34.23;;
13753;SDS011;6948;51.216;6.778;2023-02-22T00:31:41;78.30;;;35.10;;
13753;SDS011;6948;51.216;6.778;2023-02-22T00:34:07;129.60;;;35.10;;
13753;SDS011;6948;51.216;6.778;2023-02-22T00:36:33;98.37;;;35.43;;
13753;SDS011;6948;51.216;6.778;2023-02-22T00:38:59;92.40;;;35.60;;
13753;SDS011;6948;51.216;6.778;2023-02-22T00:41:25;387.87;;;38.50;;
13753;SDS011;6948;51.216;6.778;2023-02-22T00:43:51;112.57;;;35.50;;
13753;SDS011;6948;51.216;6.778;2023-02-22T00:46:17;200.07;;;32.53;;
13753;SDS011;6948;51.216;6.778;2023-02-22T00:48:43;150.13;;;34.90;;
13753;SDS011;6948;51.216;6.778;2023-02-22T00:51:09;182.37;;;35.77;;
13753;SDS011;6948;51.216;6.778;2023-02-22T00:53:36;89.17;;;34.57;;
13753;SDS011;6948;51.216;6.778;2023-02-22T00:56:02;95.17;;;32.73;;
13753;SDS011;6948;51.216;6.778;2023-02-22T00:58:28;109.13;;;33.10;;
13753;SDS011;6948;51.216;6.778;2023-02-22T01:00:54;127.10;;;33.50;;
13753;SDS011;6948;51.216;6.778;2023-02-22T01:03:20;219.27;;;35.83;;
13753;SDS011;6948;51.216;6.778;2023-02-22T01:05:46;66.60;;;34.00;;
13753;SDS011;6948;51.216;6.778;2023-02-22T01:08:13;160.53;;;32.77;;
13753;SDS011;6948;51.216;6.778;2023-02-22T01:10:39;144.23;;;33.37;;
13753;SDS011;6948;51.216;6.778;2023-02-22T01:13:06;66.73;;;31.50;;
13753;SDS011;6948;51.216;6.778;2023-02-22T01:15:33;95.70;;;32.43;;
13753;SDS011;6948;51.216;6.778;2023-02-22T01:17:59;106.97;;;32.60;;
13753;SDS011;6948;51.216;6.778;2023-02-22T01:20:26;100.13;;;32.20;;
13753;SDS011;6948;51.216;6.778;2023-02-22T01:22:54;100.53;;;32.30;;
13753;SDS011;6948;51.216;6.778;2023-02-22T01:25:22;216.63;;;30.27;;
13753;SDS011;6948;51.216;6.778;2023-02-22T01:27:48;70.60;;;31.37;;
13753;SDS011;6948;51.216;6.778;2023-02-22T01:30:15;128.87;;;31.07;;
13753;SDS011;6948;51.216;6.778;2023-02-22T01:32:41;97.77;;;28.43;;
13753;SDS011;6948;51.216;6.778;2023-02-22T01:35:11;220.60;;;27.80;;
13753;SDS011;6948;51.216;6.778;2023-02-22T01:37:38;60.67;;;26.83;;
13753;SDS011;6948;51.216;6.778;2023-02-22T01:40:05;69.50;;;26.27;;
13753;SDS011;6948;51.216;6.778;2023-02-22T01:42:32;69.90;;;26.70;;
13753;SDS011;6948;51.216;6.778;2023-02-22T01:47:44;59.83;;;25.13;;
13753;SDS011;6948;51.216;6.778;2023-02-22T01:50:10;76.20;;;22.80;;
13753;SDS011;6948;51.216;6.778;2023-02-22T01:52:36;42.03;;;23.47;;
13753;SDS011;6948;51.216;6.778;2023-02-22T01:55:02;55.30;;;23.93;;
13753;SDS011;6948;51.216;6.778;2023-02-22T01:57:30;50.97;;;23.03;;
13753;SDS011;6948;51.216;6.778;2023-02-22T01:59:58;50.63;;;23.43;;
13753;SDS011;6948;51.216;6.778;2023-02-22T02:02:25;127.40;;;24.10;;
13753;SDS011;6948;51.216;6.778;2023-02-22T02:04:52;57.10;;;24.37;;
13753;SDS011;6948;51.216;6.778;2023-02-22T02:07:20;52.10;;;24.53;;
13753;SDS011;6948;51.216;6.778;2023-02-22T02:09:50;67.97;;;24.33;;
13753;SDS011;6948;51.216;6.778;2023-02-22T02:12:17;47.30;;;25.70;;
13753;SDS011;6948;51.216;6.778;2023-02-22T02:14:45;78.30;;;25.33;;
13753;SDS011;6948;51.216;6.778;2023-02-22T02:17:11;75.27;;;25.70;;
13753;SDS011;6948;51.216;6.778;2023-02-22T02:19:40;56.20;;;26.10;;
13753;SDS011;6948;51.216;6.778;2023-02-22T02:22:20;51.40;;;25.17;;
13753;SDS011;6948;51.216;6.778;2023-02-22T02:33:02;77.30;;;28.77;;
13753;SDS011;6948;51.216;6.778;2023-02-22T02:40:51;75.80;;;27.67;;
13753;SDS011;6948;51.216;6.778;2023-02-22T02:46:07;64.27;;;29.10;;
13753;SDS011;6948;51.216;6.778;2023-02-22T02:48:34;102.37;;;27.17;;
13753;SDS011;6948;51.216;6.778;2023-02-22T02:51:04;103.10;;;28.70;;
13753;SDS011;6948;51.216;6.778;2023-02-22T02:53:33;57.90;;;26.97;;
13753;SDS011;6948;51.216;6.778;2023-02-22T02:55:59;87.00;;;28.23;;
13753;SDS011;6948;51.216;6.778;2023-02-22T02:58:26;77.97;;;28.43;;
13753;SDS011;6948;51.216;6.778;2023-02-22T03:00:53;68.20;;;29.27;;
13753;SDS011;6948;51.216;6.778;2023-02-22T03:06:09;58.57;;;28.63;;
13753;SDS011;6948;51.216;6.778;2023-02-22T03:08:40;66.70;;;28.70;;
13753;SDS011;6948;51.216;6.778;2023-02-22T03:11:25;57.67;;;29.57;;
13753;SDS011;6948;51.216;6.778;2023-02-22T03:13:53;64.40;;;28.90;;
13753;SDS011;6948;51.216;6.778;2023-02-22T03:21:56;62.90;;;29.03;;
13753;SDS011;6948;51.216;6.778;2023-02-22T03:24:29;59.70;;;27.23;;
13753;SDS011;6948;51.216;6.778;2023-02-22T03:26:58;54.40;;;25.97;;
13753;SDS011;6948;51.216;6.778;2023-02-22T03:29:27;49.63;;;25.97;;
13753;SDS011;6948;51.216;6.778;2023-02-22T03:31:59;48.93;;;26.60;;
13753;SDS011;6948;51.216;6.778;2023-02-22T03:34:28;54.43;;;27.30;;
13753;SDS011;6948;51.216;6.778;2023-02-22T03:36:56;52.87;;;28.10;;
13753;SDS011;6948;51.216;6.778;2023-02-22T03:39:24;74.43;;;37.03;;
13753;SDS011;6948;51.216;6.778;2023-02-22T03:41:55;51.73;;;27.73;;
13753;SDS011;6948;51.216;6.778;2023-02-22T03:44:23;53.20;;;29.63;;
13753;SDS011;6948;51.216;6.778;2023-02-22T03:46:50;53.33;;;30.20;;
13753;SDS011;6948;51.216;6.778;2023-02-22T03:49:23;54.57;;;30.63;;
13753;SDS011;6948;51.216;6.778;2023-02-22T03:51:53;58.47;;;31.93;;
13753;SDS011;6948;51.216;6.778;2023-02-22T03:54:20;62.37;;;35.83;;
13753;SDS011;6948;51.216;6.778;2023-02-22T03:56:48;63.23;;;31.30;;
13753;SDS011;6948;51.216;6.778;2023-02-22T03:59:16;75.77;;;42.20;;
13753;SDS011;6948;51.216;6.778;2023-02-22T04:01:42;83.60;;;33.93;;
13753;SDS011;6948;51.216;6.778;2023-02-22T04:04:08;73.50;;;32.63;;
13753;SDS011;6948;51.216;6.778;2023-02-22T04:06:34;62.00;;;32.43;;
13753;SDS011;6948;51.216;6.778;2023-02-22T04:09:00;67.40;;;34.60;;
13753;SDS011;6948;51.216;6.778;2023-02-22T04:11:26;67.73;;;32.47;;
13753;SDS011;6948;51.216;6.778;2023-02-22T04:13:52;65.97;;;33.97;;
13753;SDS011;6948;51.216;6.778;2023-02-22T04:16:18;63.80;;;34.37;;
13753;SDS011;6948;51.216;6.778;2023-02-22T04:18:45;67.17;;;33.53;;
13753;SDS011;6948;51.216;6.778;2023-02-22T04:21:11;67.07;;;34.17;;
13753;SDS011;6948;51.216;6.778;2023-02-22T04:23:38;73.03;;;34.47;;
13753;SDS011;6948;51.216;6.778;2023-02-22T04:26:04;73.73;;;33.77;;
13753;SDS011;6948;51.216;6.778;2023-02-22T04:28:30;73.00;;;33.37;;
13753;SDS011;6948;51.216;6.778;2023-02-22T04:30:56;67.13;;;33.83;;
13753;SDS011;6948;51.216;6.778;2023-02-22T04:33:22;69.73;;;34.33;;
13753;SDS011;6948;51.216;6.778;2023-02-22T04:35:48;67.37;;;34.30;;
13753;SDS011;6948;51.216;6.778;2023-02-22T04:38:15;76.87;;;34.27;;
13753;SDS011;6948;51.216;6.778;2023-02-22T04:40:41;73.27;;;33.97;;
13753;SDS011;6948;51.216;6.778;2023-02-22T04:43:07;74.00;;;34.40;;
13753;SDS011;6948;51.216;6.778;2023-02-22T04:45:33;70.10;;;34.80;;
13753;SDS011;6948;51.216;6.778;2023-02-22T04:48:00;67.67;;;33.07;;
13753;SDS011;6948;51.216;6.778;2023-02-22T04:50:26;64.00;;;34.23;;
13753;SDS011;6948;51.216;6.778;2023-02-22T04:52:52;63.27;;;33.10;;
13753;SDS011;6948;51.216;6.778;2023-02-22T04:55:18;78.90;;;33.87;;
13753;SDS011;6948;51.216;6.778;2023-02-22T04:57:44;72.30;;;34.80;;
13753;SDS011;6948;51.216;6.778;2023-02-22T05:00:14;66.70;;;34.90;;
13753;SDS011;6948;51.216;6.778;2023-02-22T05:02:56;72.63;;;34.03;;
13753;SDS011;6948;51.216;6.778;2023-02-22T05:05:22;61.87;;;34.47;;
13753;SDS011;6948;51.216;6.778;2023-02-22T05:07:48;58.03;;;34.17;;
13753;SDS011;6948;51.216;6.778;2023-02-22T05:10:14;60.67;;;34.20;;
13753;SDS011;6948;51.216;6.778;2023-02-22T05:12:41;59.80;;;34.80;;
13753;SDS011;6948;51.216;6.778;2023-02-22T05:15:07;58.30;;;35.10;;
13753;SDS011;6948;51.216;6.778;2023-02-22T05:17:33;86.20;;;34.40;;
13753;SDS011;6948;51.216;6.778;2023-02-22T05:20:00;59.73;;;34.07;;
13753;SDS011;6948;51.216;6.778;2023-02-22T05:22:27;55.50;;;34.23;;
13753;SDS011;6948;51.216;6.778;2023-02-22T05:24:53;55.27;;;32.33;;
13753;SDS011;6948;51.216;6.778;2023-02-22T05:27:21;52.40;;;32.00;;
13753;SDS011;6948;51.216;6.778;2023-02-22T05:29:47;46.80;;;31.90;;
13753;SDS011;6948;51.216;6.778;2023-02-22T05:32:13;42.23;;;28.57;;
13753;SDS011;6948;51.216;6.778;2023-02-22T05:34:39;39.63;;;28.17;;
13753;SDS011;6948;51.216;6.778;2023-02-22T05:37:05;36.60;;;26.57;;
13753;SDS011;6948;51.216;6.778;2023-02-22T05:39:31;35.87;;;25.57;;
13753;SDS011;6948;51.216;6.778;2023-02-22T05:41:57;36.67;;;25.47;;
13753;SDS011;6948;51.216;6.778;2023-02-22T05:44:23;31.43;;;24.00;;
13753;SDS011;6948;51.216;6.778;2023-02-22T05:46:49;31.17;;;24.17;;
13753;SDS011;6948;51.216;6.778;2023-02-22T05:49:15;31.83;;;24.27;;
13753;SDS011;6948;51.216;6.778;2023-02-22T05:51:41;34.67;;;25.77;;
13753;SDS011;6948;51.216;6.778;2023-02-22T05:54:07;34.63;;;25.33;;
13753;SDS011;6948;51.216;6.778;2023-02-22T05:56:33;34.97;;;26.00;;
13753;SDS011;6948;51.216;6.778;2023-02-22T05:59:00;39.07;;;28.20;;
13753;SDS011;6948;51.216;6.778;2023-02-22T06:01:26;41.93;;;28.13;;
13753;SDS011;6948;51.216;6.778;2023-02-22T06:03:53;38.37;;;28.30;;
13753;SDS011;6948;51.216;6.778;2023-02-22T06:06:19;41.70;;;28.30;;
13753;SDS011;6948;51.216;6.778;2023-02-22T06:08:45;44.47;;;30.00;;
13753;SDS011;6948;51.216;6.778;2023-02-22T06:11:12;46.97;;;30.70;;
13753;SDS011;6948;51.216;6.778;2023-02-22T06:13:38;48.83;;;31.77;;
13753;SDS011;6948;51.216;6.778;2023-02-22T06:16:04;46.27;;;31.07;;
13753;SDS011;6948;51.216;6.778;2023-02-22T06:18:30;44.67;;;30.10;;
13753;SDS011;6948;51.216;6.778;2023-02-22T06:20:57;41.50;;;30.43;;
13753;SDS011;6948;51.216;6.778;2023-02-22T06:23:23;48.30;;;31.63;;
13753;SDS011;6948;51.216;6.778;2023-02-22T06:25:49;46.00;;;31.63;;
13753;SDS011;6948;51.216;6.778;2023-02-22T06:28:15;44.20;;;29.80;;
13753;SDS011;6948;51.216;6.778;2023-02-22T06:30:41;44.07;;;30.80;;
13753;SDS011;6948;51.216;6.778;2023-02-22T06:33:07;41.30;;;29.77;;
13753;SDS011;6948;51.216;6.778;2023-02-22T06:35:33;38.87;;;27.57;;
13753;SDS011;6948;51.216;6.778;2023-02-22T06:37:59;39.43;;;27.87;;
13753;SDS011;6948;51.216;6.778;2023-02-22T06:40:26;34.30;;;25.93;;
13753;SDS011;6948;51.216;6.778;2023-02-22T06:42:53;34.77;;;25.93;;
13753;SDS011;6948;51.216;6.778;2023-02-22T06:45:19;34.93;;;25.10;;
13753;SDS011;6948;51.216;6.778;2023-02-22T06:47:45;34.73;;;25.17;;
13753;SDS011;6948;51.216;6.778;2023-02-22T06:50:22;33.57;;;23.97;;
13753;SDS011;6948;51.216;6.778;2023-02-22T06:52:48;30.63;;;22.73;;
13753;SDS011;6948;51.216;6.778;2023-02-22T06:55:19;28.67;;;22.00;;
13753;SDS011;6948;51.216;6.778;2023-02-22T06:57:45;30.73;;;22.17;;
13753;SDS011;6948;51.216;6.778;2023-02-22T07:00:11;31.40;;;22.60;;
13753;SDS011;6948;51.216;6.778;2023-02-22T07:02:37;29.77;;;22.33;;
13753;SDS011;6948;51.216;6.778;2023-02-22T07:05:03;30.73;;;22.30;;
13753;SDS011;6948;51.216;6.778;2023-02-22T07:07:29;31.93;;;22.13;;
13753;SDS011;6948;51.216;6.778;2023-02-22T07:09:55;32.90;;;22.07;;
13753;SDS011;6948;51.216;6.778;2023-02-22T07:12:21;28.00;;;22.13;;
13753;SDS011;6948;51.216;6.778;2023-02-22T07:14:47;32.00;;;21.77;;
13753;SDS011;6948;51.216;6.778;2023-02-22T07:17:13;29.17;;;22.03;;
13753;SDS011;6948;51.216;6.778;2023-02-22T07:19:39;32.13;;;22.13;;
13753;SDS011;6948;51.216;6.778;2023-02-22T07:22:05;29.80;;;22.20;;
13753;SDS011;6948;51.216;6.778;2023-02-22T07:24:31;29.57;;;22.53;;
13753;SDS011;6948;51.216;6.778;2023-02-22T07:26:59;26.80;;;21.93;;
13753;SDS011;6948;51.216;6.778;2023-02-22T07:29:26;32.63;;;24.20;;
13753;SDS011;6948;51.216;6.778;2023-02-22T07:31:52;34.13;;;25.30;;
13753;SDS011;6948;51.216;6.778;2023-02-22T07:34:18;35.00;;;25.17;;
13753;SDS011;6948;51.216;6.778;2023-02-22T07:36:44;33.03;;;25.47;;
13753;SDS011;6948;51.216;6.778;2023-02-22T07:39:10;32.10;;;25.53;;
13753;SDS011;6948;51.216;6.778;2023-02-22T07:41:36;32.53;;;25.37;;
13753;SDS011;6948;51.216;6.778;2023-02-22T07:44:02;33.30;;;24.37;;
13753;SDS011;6948;51.216;6.778;2023-02-22T07:46:28;31.50;;;24.03;;
13753;SDS011;6948;51.216;6.778;2023-02-22T07:48:54;27.77;;;23.07;;
13753;SDS011;6948;51.216;6.778;2023-02-22T07:51:20;29.23;;;22.60;;
13753;SDS011;6948;51.216;6.778;2023-02-22T07:53:46;25.43;;;22.30;;
13753;SDS011;6948;51.216;6.778;2023-02-22T07:56:12;26.60;;;20.57;;
13753;SDS011;6948;51.216;6.778;2023-02-22T07:58:39;26.43;;;20.60;;
13753;SDS011;6948;51.216;6.778;2023-02-22T08:01:05;23.97;;;19.87;;
13753;SDS011;6948;51.216;6.778;2023-02-22T08:03:32;26.17;;;20.33;;
13753;SDS011;6948;51.216;6.778;2023-02-22T08:06:00;23.57;;;19.57;;
13753;SDS011;6948;51.216;6.778;2023-02-22T08:08:27;25.57;;;19.93;;
13753;SDS011;6948;51.216;6.778;2023-02-22T08:10:53;23.30;;;19.60;;
13753;SDS011;6948;51.216;6.778;2023-02-22T08:13:20;25.10;;;18.60;;
13753;SDS011;6948;51.216;6.778;2023-02-22T08:15:46;21.77;;;18.67;;
13753;SDS011;6948;51.216;6.778;2023-02-22T08:18:13;24.33;;;19.27;;
13753;SDS011;6948;51.216;6.778;2023-02-22T08:20:40;24.97;;;19.70;;
13753;SDS011;6948;51.216;6.778;2023-02-22T08:23:06;22.27;;;18.00;;
13753;SDS011;6948;51.216;6.778;2023-02-22T08:25:32;30.50;;;19.47;;
13753;SDS011;6948;51.216;6.778;2023-02-22T08:28:00;26.40;;;18.27;;
13753;SDS011;6948;51.216;6.778;2023-02-22T08:30:27;23.27;;;17.83;;
13753;SDS011;6948;51.216;6.778;2023-02-22T08:32:55;25.43;;;18.87;;
13753;SDS011;6948;51.216;6.778;2023-02-22T08:35:22;25.97;;;18.40;;
13753;SDS011;6948;51.216;6.778;2023-02-22T08:37:49;24.17;;;18.37;;
13753;SDS011;6948;51.216;6.778;2023-02-22T08:40:16;28.27;;;21.03;;
13753;SDS011;6948;51.216;6.778;2023-02-22T08:42:43;21.33;;;17.50;;
13753;SDS011;6948;51.216;6.778;2023-02-22T08:45:09;22.43;;;17.93;;
13753;SDS011;6948;51.216;6.778;2023-02-22T08:47:37;19.00;;;17.00;;
13753;SDS011;6948;51.216;6.778;2023-02-22T08:50:03;20.00;;;17.23;;
13753;SDS011;6948;51.216;6.778;2023-02-22T08:52:30;23.20;;;17.00;;
13753;SDS011;6948;51.216;6.778;2023-02-22T08:54:55;23.40;;;17.43;;
13753;SDS011;6948;51.216;6.778;2023-02-22T08:57:21;22.83;;;17.90;;
13753;SDS011;6948;51.216;6.778;2023-02-22T08:59:47;20.90;;;17.60;;
13753;SDS011;6948;51.216;6.778;2023-02-22T09:02:14;25.90;;;19.93;;
13753;SDS011;6948;51.216;6.778;2023-02-22T09:04:41;21.83;;;19.17;;
13753;SDS011;6948;51.216;6.778;2023-02-22T09:07:07;24.30;;;17.97;;
13753;SDS011;6948;51.216;6.778;2023-02-22T09:09:33;24.17;;;18.83;;
13753;SDS011;6948;51.216;6.778;2023-02-22T09:11:59;22.43;;;17.50;;
13753;SDS011;6948;51.216;6.778;2023-02-22T09:14:26;25.10;;;19.00;;
13753;SDS011;6948;51.216;6.778;2023-02-22T09:16:52;21.47;;;18.80;;
13753;SDS011;6948;51.216;6.778;2023-02-22T09:19:18;23.40;;;18.13;;
13753;SDS011;6948;51.216;6.778;2023-02-22T09:21:44;24.03;;;18.73;;
13753;SDS011;6948;51.216;6.778;2023-02-22T09:24:10;25.83;;;18.80;;
13753;SDS011;6948;51.216;6.778;2023-02-22T09:26:36;26.47;;;18.20;;
13753;SDS011;6948;51.216;6.778;2023-02-22T09:29:04;22.20;;;18.07;;
13753;SDS011;6948;51.216;6.778;2023-02-22T09:31:33;23.57;;;18.93;;
13753;SDS011;6948;51.216;6.778;2023-02-22T09:33:59;22.20;;;18.53;;
13753;SDS011;6948;51.216;6.778;2023-02-22T09:36:25;24.57;;;18.73;;
13753;SDS011;6948;51.216;6.778;2023-02-22T09:38:51;24.67;;;19.07;;
13753;SDS011;6948;51.216;6.778;2023-02-22T09:41:19;27.07;;;19.70;;
13753;SDS011;6948;51.216;6.778;2023-02-22T09:44:03;24.50;;;19.60;;
13753;SDS011;6948;51.216;6.778;2023-02-22T09:46:34;25.73;;;19.97;;
13753;SDS011;6948;51.216;6.778;2023-02-22T09:51:58;27.73;;;20.47;;
13753;SDS011;6948;51.216;6.778;2023-02-22T09:57:12;24.23;;;20.13;;
13753;SDS011;6948;51.216;6.778;2023-02-22T09:59:42;23.97;;;19.30;;
13753;SDS011;6948;51.216;6.778;2023-02-22T10:02:16;26.97;;;20.63;;
13753;SDS011;6948;51.216;6.778;2023-02-22T10:04:48;23.13;;;18.23;;
13753;SDS011;6948;51.216;6.778;2023-02-22T10:07:25;24.00;;;19.50;;
13753;SDS011;6948;51.216;6.778;2023-02-22T10:09:53;26.10;;;19.33;;
13753;SDS011;6948;51.216;6.778;2023-02-22T10:12:22;23.70;;;18.87;;
13753;SDS011;6948;51.216;6.778;2023-02-22T10:14:53;22.90;;;17.60;;
13753;SDS011;6948;51.216;6.778;2023-02-22T10:17:32;23.50;;;18.93;;
13753;SDS011;6948;51.216;6.778;2023-02-22T10:22:44;20.40;;;16.43;;
13753;SDS011;6948;51.216;6.778;2023-02-22T10:25:13;19.33;;;16.20;;
13753;SDS011;6948;51.216;6.778;2023-02-22T10:27:44;21.17;;;16.37;;
13753;SDS011;6948;51.216;6.778;2023-02-22T10:32:59;20.07;;;15.53;;
13753;SDS011;6948;51.216;6.778;2023-02-22T10:35:31;21.47;;;16.40;;
13753;SDS011;6948;51.216;6.778;2023-02-22T10:37:59;20.43;;;16.30;;
13753;SDS011;6948;51.216;6.778;2023-02-22T10:40:26;19.03;;;15.60;;
13753;SDS011;6948;51.216;6.778;2023-02-22T10:42:57;24.97;;;17.50;;
13753;SDS011;6948;51.216;6.778;2023-02-22T10:45:26;16.37;;;14.33;;
13753;SDS011;6948;51.216;6.778;2023-02-22T10:47:54;17.30;;;14.23;;
13753;SDS011;6948;51.216;6.778;2023-02-22T10:50:22;20.03;;;14.67;;
13753;SDS011;6948;51.216;6.778;2023-02-22T10:52:49;17.40;;;14.27;;
13753;SDS011;6948;51.216;6.778;2023-02-22T10:55:15;17.57;;;14.00;;
13753;SDS011;6948;51.216;6.778;2023-02-22T10:57:43;18.10;;;13.63;;
13753;SDS011;6948;51.216;6.778;2023-02-22T11:00:12;17.67;;;13.23;;
13753;SDS011;6948;51.216;6.778;2023-02-22T11:02:38;17.17;;;12.53;;
13753;SDS011;6948;51.216;6.778;2023-02-22T11:05:25;16.23;;;12.67;;
13753;SDS011;6948;51.216;6.778;2023-02-22T11:07:51;18.90;;;14.67;;
13753;SDS011;6948;51.216;6.778;2023-02-22T11:10:39;16.43;;;13.10;;
13753;SDS011;6948;51.216;6.778;2023-02-22T11:15:54;15.57;;;12.20;;
13753;SDS011;6948;51.216;6.778;2023-02-22T11:18:21;15.30;;;12.10;;
13753;SDS011;6948;51.216;6.778;2023-02-22T11:20:48;14.10;;;11.47;;
13753;SDS011;6948;51.216;6.778;2023-02-22T11:23:18;16.63;;;12.17;;
13753;SDS011;6948;51.216;6.778;2023-02-22T11:25:47;16.83;;;11.63;;
13753;SDS011;6948;51.216;6.778;2023-02-22T11:28:31;12.90;;;11.37;;
13753;SDS011;6948;51.216;6.778;2023-02-22T11:31:07;14.43;;;11.70;;
13753;SDS011;6948;51.216;6.778;2023-02-22T11:33:33;14.83;;;11.60;;
13753;SDS011;6948;51.216;6.778;2023-02-22T11:36:01;14.80;;;11.53;;
13753;SDS011;6948;51.216;6.778;2023-02-22T11:38:30;13.80;;;11.67;;
13753;SDS011;6948;51.216;6.778;2023-02-22T11:43:43;14.93;;;12.00;;
13753;SDS011;6948;51.216;6.778;2023-02-22T11:49:04;14.90;;;11.47;;
13753;SDS011;6948;51.216;6.778;2023-02-22T11:57:26;15.33;;;12.17;;
13753;SDS011;6948;51.216;6.778;2023-02-22T12:00:01;16.83;;;12.03;;
13753;SDS011;6948;51.216;6.778;2023-02-22T12:05:24;16.97;;;12.60;;
13753;SDS011;6948;51.216;6.778;2023-02-22T12:10:39;17.07;;;12.73;;
13753;SDS011;6948;51.216;6.778;2023-02-22T12:13:17;15.87;;;12.80;;
13753;SDS011;6948;51.216;6.778;2023-02-22T12:18:35;17.43;;;12.73;;
13753;SDS011;6948;51.216;6.778;2023-02-22T12:21:12;15.87;;;12.00;;
13753;SDS011;6948;51.216;6.778;2023-02-22T12:26:23;14.73;;;12.30;;
13753;SDS011;6948;51.216;6.778;2023-02-22T12:28:51;13.90;;;11.60;;
13753;SDS011;6948;51.216;6.778;2023-02-22T12:36:44;14.23;;;12.20;;
13753;SDS011;6948;51.216;6.778;2023-02-22T12:41:58;12.93;;;11.37;;
13753;SDS011;6948;51.216;6.778;2023-02-22T12:44:28;13.07;;;10.97;;
13753;SDS011;6948;51.216;6.778;2023-02-22T12:46:56;14.57;;;10.97;;
13753;SDS011;6948;51.216;6.778;2023-02-22T12:54:42;15.87;;;11.33;;
13753;SDS011;6948;51.216;6.778;2023-02-22T12:57:14;11.50;;;10.27;;
13753;SDS011;6948;51.216;6.778;2023-02-22T12:59:45;14.27;;;10.97;;
13753;SDS011;6948;51.216;6.778;2023-02-22T13:04:59;14.77;;;10.90;;
13753;SDS011;6948;51.216;6.778;2023-02-22T13:10:09;13.77;;;10.53;;
13753;SDS011;6948;51.216;6.778;2023-02-22T13:12:47;13.37;;;9.40;;
13753;SDS011;6948;51.216;6.778;2023-02-22T13:15:19;14.37;;;10.13;;
13753;SDS011;6948;51.216;6.778;2023-02-22T13:17:50;11.93;;;9.90;;
13753;SDS011;6948;51.216;6.778;2023-02-22T13:23:05;15.40;;;9.83;;
13753;SDS011;6948;51.216;6.778;2023-02-22T13:33:35;15.50;;;9.77;;
13753;SDS011;6948;51.216;6.778;2023-02-22T13:36:12;15.20;;;10.20;;
13753;SDS011;6948;51.216;6.778;2023-02-22T13:38:47;11.87;;;9.83;;
13753;SDS011;6948;51.216;6.778;2023-02-22T13:49:30;12.37;;;9.87;;
13753;SDS011;6948;51.216;6.778;2023-02-22T13:52:02;12.13;;;9.57;;
13753;SDS011;6948;51.216;6.778;2023-02-22T13:57:27;15.40;;;9.47;;
13753;SDS011;6948;51.216;6.778;2023-02-22T14:11:03;12.60;;;9.33;;
13753;SDS011;6948;51.216;6.778;2023-02-22T14:13:32;16.00;;;10.53;;
13753;SDS011;6948;51.216;6.778;2023-02-22T14:16:23;13.20;;;9.90;;
13753;SDS011;6948;51.216;6.778;2023-02-22T14:18:59;12.87;;;9.57;;
13753;SDS011;6948;51.216;6.778;2023-02-22T14:21:26;12.70;;;9.67;;
13753;SDS011;6948;51.216;6.778;2023-02-22T14:34:21;15.20;;;10.00;;
13753;SDS011;6948;51.216;6.778;2023-02-22T14:37:05;12.50;;;9.73;;
13753;SDS011;6948;51.216;6.778;2023-02-22T14:45:09;12.60;;;9.70;;
13753;SDS011;6948;51.216;6.778;2023-02-22T14:47:38;12.70;;;9.40;;
13753;SDS011;6948;51.216;6.778;2023-02-22T14:50:11;13.07;;;9.20;;
13753;SDS011;6948;51.216;6.778;2023-02-22T14:52:39;12.10;;;9.57;;
13753;SDS011;6948;51.216;6.778;2023-02-22T14:55:13;12.57;;;9.97;;
13753;SDS011;6948;51.216;6.778;2023-02-22T14:57:45;12.90;;;9.20;;
13753;SDS011;6948;51.216;6.778;2023-02-22T15:00:17;11.53;;;9.40;;
13753;SDS011;6948;51.216;6.778;2023-02-22T15:02:44;15.73;;;10.00;;
13753;SDS011;6948;51.216;6.778;2023-02-22T15:05:11;14.83;;;9.40;;
13753;SDS011;6948;51.216;6.778;2023-02-22T15:07:38;12.33;;;9.67;;
13753;SDS011;6948;51.216;6.778;2023-02-22T15:10:05;14.53;;;9.40;;
13753;SDS011;6948;51.216;6.778;2023-02-22T15:12:32;12.87;;;9.33;;
13753;SDS011;6948;51.216;6.778;2023-02-22T15:17:46;12.17;;;9.23;;
13753;SDS011;6948;51.216;6.778;2023-02-22T15:20:14;11.00;;;8.77;;
13753;SDS011;6948;51.216;6.778;2023-02-22T15:22:41;11.70;;;9.00;;
13753;SDS011;6948;51.216;6.778;2023-02-22T15:25:07;11.97;;;9.10;;
13753;SDS011;6948;51.216;6.778;2023-02-22T15:27:35;12.87;;;9.60;;
13753;SDS011;6948;51.216;6.778;2023-02-22T15:30:04;14.00;;;9.50;;
13753;SDS011;6948;51.216;6.778;2023-02-22T15:32:33;12.17;;;9.20;;
13753;SDS011;6948;51.216;6.778;2023-02-22T15:40:39;11.33;;;9.63;;
13753;SDS011;6948;51.216;6.778;2023-02-22T15:43:14;14.77;;;10.10;;
13753;SDS011;6948;51.216;6.778;2023-02-22T15:45:40;11.97;;;10.20;;
13753;SDS011;6948;51.216;6.778;2023-02-22T15:48:08;15.40;;;10.33;;
13753;SDS011;6948;51.216;6.778;2023-02-22T15:50:35;12.20;;;10.10;;
13753;SDS011;6948;51.216;6.778;2023-02-22T15:53:02;12.33;;;10.03;;
13753;SDS011;6948;51.216;6.778;2023-02-22T15:55:33;15.77;;;10.77;;
13753;SDS011;6948;51.216;6.778;2023-02-22T15:58:02;12.47;;;10.60;;
13753;SDS011;6948;51.216;6.778;2023-02-22T16:00:33;11.93;;;10.67;;
13753;SDS011;6948;51.216;6.778;2023-02-22T16:03:01;14.20;;;10.60;;
13753;SDS011;6948;51.216;6.778;2023-02-22T16:05:31;14.80;;;10.87;;
13753;SDS011;6948;51.216;6.778;2023-02-22T16:07:59;15.80;;;9.97;;
13753;SDS011;6948;51.216;6.778;2023-02-22T16:10:27;12.03;;;10.53;;
13753;SDS011;6948;51.216;6.778;2023-02-22T16:15:40;14.33;;;10.63;;
13753;SDS011;6948;51.216;6.778;2023-02-22T16:21:03;12.47;;;11.10;;
13753;SDS011;6948;51.216;6.778;2023-02-22T16:23:29;11.83;;;10.47;;
13753;SDS011;6948;51.216;6.778;2023-02-22T16:26:01;14.00;;;10.97;;
13753;SDS011;6948;51.216;6.778;2023-02-22T16:28:28;13.77;;;11.13;;
13753;SDS011;6948;51.216;6.778;2023-02-22T16:30:57;13.07;;;10.77;;
13753;SDS011;6948;51.216;6.778;2023-02-22T16:33:24;15.07;;;11.43;;
13753;SDS011;6948;51.216;6.778;2023-02-22T16:35:54;13.97;;;12.13;;
13753;SDS011;6948;51.216;6.778;2023-02-22T16:38:21;13.80;;;12.07;;
13753;SDS011;6948;51.216;6.778;2023-02-22T16:40:50;12.63;;;11.13;;
13753;SDS011;6948;51.216;6.778;2023-02-22T16:43:19;13.30;;;11.53;;
13753;SDS011;6948;51.216;6.778;2023-02-22T16:45:46;12.43;;;11.13;;
13753;SDS011;6948;51.216;6.778;2023-02-22T16:48:28;14.03;;;11.63;;
13753;SDS011;6948;51.216;6.778;2023-02-22T16:50:55;13.73;;;11.70;;
13753;SDS011;6948;51.216;6.778;2023-02-22T16:53:24;13.50;;;11.60;;
13753;SDS011;6948;51.216;6.778;2023-02-22T16:55:51;15.10;;;11.53;;
13753;SDS011;6948;51.216;6.778;2023-02-22T16:58:21;15.87;;;12.80;;
13753;SDS011;6948;51.216;6.778;2023-02-22T17:00:52;14.50;;;12.30;;
13753;SDS011;6948;51.216;6.778;2023-02-22T17:03:18;13.17;;;11.70;;
13753;SDS011;6948;51.216;6.778;2023-02-22T17:05:45;18.07;;;13.60;;
13753;SDS011;6948;51.216;6.778;2023-02-22T17:08:11;15.73;;;12.87;;